createdAt,value
2019-05-09T00:02:05.102Z,11.10
2019-05-09T00:04:34.582Z,11.10
2019-05-09T00:07:04.099Z,11.10
2019-05-09T00:09:33.697Z,11.10
2019-05-09T00:12:03.846Z,11.10
2019-05-09T00:14:34.352Z,11.10
2019-05-09T00:17:03.968Z,11.20
2019-05-09T00:19:33.533Z,11.20
2019-05-09T00:22:03.412Z,11.20
2019-05-09T00:24:33.311Z,11.20
2019-05-09T00:27:03.883Z,11.20
2019-05-09T00:29:36.160Z,11.20
2019-05-09T00:32:09.962Z,11.20
2019-05-09T00:34:44.227Z,11.20
2019-05-09T00:37:14.333Z,11.20
2019-05-09T00:39:43.862Z,11.20
2019-05-09T00:42:13.796Z,11.20
2019-05-09T00:44:44.930Z,11.30
2019-05-09T00:47:18.961Z,11.40
2019-05-09T00:49:48.433Z,11.30
2019-05-09T00:52:17.895Z,11.20
2019-05-09T00:54:47.379Z,11.20
2019-05-09T00:57:35.237Z,11.20
2019-05-09T01:00:08.471Z,11.10
2019-05-09T01:02:38.887Z,11.10
2019-05-09T01:05:09.767Z,11.30
2019-05-09T01:07:39.591Z,11.30
2019-05-09T01:10:09.406Z,11.20
2019-05-09T01:12:38.938Z,11.10
2019-05-09T01:15:08.946Z,11.10
2019-05-09T01:17:38.569Z,11.10
2019-05-09T01:20:09.382Z,11.00
2019-05-09T01:22:38.830Z,10.90
2019-05-09T01:25:08.742Z,10.90
2019-05-09T01:27:38.195Z,10.80
2019-05-09T01:30:08.211Z,10.80
2019-05-09T01:32:55.725Z,10.80
2019-05-09T01:35:25.206Z,10.90
2019-05-09T01:37:54.662Z,11.00
2019-05-09T01:40:24.137Z,11.00
2019-05-09T01:42:53.844Z,11.00
2019-05-09T01:45:23.739Z,10.90
2019-05-09T01:47:53.797Z,10.90
2019-05-09T01:50:23.543Z,10.90
2019-05-09T01:52:53.398Z,11.00
2019-05-09T01:55:24.649Z,10.90
2019-05-09T01:57:54.094Z,10.80
2019-05-09T02:00:24.543Z,10.80
2019-05-09T02:02:54.213Z,10.80
2019-05-09T02:05:24.367Z,10.90
2019-05-09T02:07:54.262Z,10.90
2019-05-09T02:10:23.784Z,10.80
2019-05-09T02:12:53.763Z,10.70
2019-05-09T02:15:25.562Z,10.80
2019-05-09T02:18:04.311Z,10.80
2019-05-09T02:20:32.730Z,10.80
2019-05-09T02:23:03.665Z,10.80
2019-05-09T02:25:33.514Z,10.80
2019-05-09T02:28:04.046Z,10.80
2019-05-09T02:30:35.990Z,10.80
2019-05-09T02:33:05.208Z,10.80
2019-05-09T02:35:41.506Z,10.80
2019-05-09T02:38:09.153Z,10.80
2019-05-09T02:40:39.364Z,10.80
2019-05-09T02:43:10.006Z,10.80
2019-05-09T02:45:40.901Z,10.80
2019-05-09T02:48:10.359Z,10.80
2019-05-09T02:50:39.833Z,10.80
2019-05-09T02:53:09.286Z,10.80
2019-05-09T02:55:38.863Z,10.80
2019-05-09T02:58:09.951Z,10.80
2019-05-09T03:00:43.562Z,10.80
2019-05-09T03:03:19.812Z,10.90
2019-05-09T03:05:48.994Z,10.80
2019-05-09T03:08:19.431Z,10.80
2019-05-09T03:10:49.425Z,10.80
2019-05-09T03:13:19.313Z,10.70
2019-05-09T03:15:50.556Z,10.90
2019-05-09T03:18:20.025Z,10.80
2019-05-09T03:21:08.981Z,10.80
2019-05-09T03:23:39.080Z,10.80
2019-05-09T03:26:10.304Z,10.70
2019-05-09T03:28:49.268Z,10.80
2019-05-09T03:31:23.414Z,10.80
2019-05-09T03:33:52.883Z,10.80
2019-05-09T03:36:22.499Z,10.80
2019-05-09T03:38:51.961Z,10.80
2019-05-09T03:41:21.439Z,10.80
2019-05-09T03:43:50.891Z,10.80
2019-05-09T03:46:22.274Z,10.90
2019-05-09T03:48:53.439Z,10.80
2019-05-09T03:51:22.933Z,10.80
2019-05-09T03:53:52.379Z,10.80
2019-05-09T03:56:23.499Z,10.70
2019-05-09T03:58:52.955Z,10.70
2019-05-09T04:01:22.468Z,10.80
2019-05-09T04:03:51.924Z,10.80
2019-05-09T04:06:21.388Z,10.80
2019-05-09T04:08:53.817Z,10.70
2019-05-09T04:11:21.927Z,10.70
2019-05-09T04:14:04.899Z,10.70
2019-05-09T04:16:34.357Z,10.70
2019-05-09T04:19:03.983Z,10.70
2019-05-09T04:21:33.449Z,10.70
2019-05-09T04:24:02.907Z,10.70
2019-05-09T04:26:49.048Z,10.70
2019-05-09T04:29:18.587Z,10.70
2019-05-09T04:31:48.405Z,10.80
2019-05-09T04:34:18.508Z,10.80
2019-05-09T04:36:48.471Z,10.80
2019-05-09T04:39:23.443Z,10.80
2019-05-09T04:41:49.243Z,10.80
2019-05-09T04:44:21.760Z,10.80
2019-05-09T04:46:54.050Z,10.80
2019-05-09T04:49:22.505Z,10.80
2019-05-09T04:51:53.028Z,10.80
2019-05-09T04:54:22.556Z,10.80
2019-05-09T04:56:53.848Z,10.80
2019-05-09T04:59:23.098Z,10.80
2019-05-09T05:02:08.617Z,10.90
2019-05-09T05:04:37.491Z,10.90
2019-05-09T05:07:07.616Z,10.80
2019-05-09T05:09:37.951Z,10.80
2019-05-09T05:12:08.418Z,10.80
2019-05-09T05:14:38.611Z,10.80
2019-05-09T05:17:11.082Z,10.80
2019-05-09T05:19:39.316Z,10.90
2019-05-09T05:22:20.463Z,10.90
2019-05-09T05:24:55.255Z,10.90
2019-05-09T05:27:22.668Z,10.90
2019-05-09T05:29:52.118Z,11.00
2019-05-09T05:32:23.242Z,11.00
2019-05-09T05:35:03.151Z,11.10
2019-05-09T05:37:32.679Z,11.10
2019-05-09T05:40:02.209Z,11.10
2019-05-09T05:42:32.046Z,11.20
2019-05-09T05:45:01.504Z,11.20
2019-05-09T05:47:32.603Z,11.30
2019-05-09T05:50:02.066Z,11.30
2019-05-09T05:52:31.539Z,11.30
2019-05-09T05:55:00.995Z,11.40
2019-05-09T05:57:30.624Z,11.40
2019-05-09T06:00:00.094Z,11.40
2019-05-09T06:02:29.561Z,11.50
2019-05-09T06:04:59.019Z,11.40
2019-05-09T06:07:28.645Z,11.50
2019-05-09T06:09:58.083Z,11.50
2019-05-09T06:12:28.615Z,11.50
2019-05-09T06:14:58.310Z,11.50
2019-05-09T06:17:28.692Z,11.50
2019-05-09T06:19:59.032Z,11.50
2019-05-09T06:22:28.615Z,11.50
2019-05-09T06:25:00.133Z,11.60
2019-05-09T06:27:29.636Z,11.60
2019-05-09T06:29:59.085Z,11.60
2019-05-09T06:32:28.653Z,11.70
2019-05-09T06:34:58.144Z,11.70
2019-05-09T06:37:27.836Z,11.80
2019-05-09T06:39:59.437Z,11.80
2019-05-09T06:42:29.116Z,11.90
2019-05-09T06:45:07.730Z,11.90
2019-05-09T06:47:38.960Z,12.00
2019-05-09T06:50:10.140Z,12.00
2019-05-09T06:52:39.593Z,12.00
2019-05-09T06:55:09.311Z,12.10
2019-05-09T06:57:42.705Z,12.20
2019-05-09T07:00:17.842Z,12.20
2019-05-09T07:02:51.515Z,12.20
2019-05-09T07:05:25.355Z,12.30
2019-05-09T07:07:57.532Z,12.30
2019-05-09T07:10:28.374Z,12.40
2019-05-09T07:12:58.563Z,12.40
2019-05-09T07:15:28.360Z,12.50
2019-05-09T07:17:57.944Z,12.50
2019-05-09T07:20:28.457Z,12.60
2019-05-09T07:22:58.454Z,12.60
2019-05-09T07:25:47.828Z,12.60
2019-05-09T07:28:18.002Z,12.60
2019-05-09T07:31:07.672Z,12.60
2019-05-09T07:33:44.884Z,12.60
2019-05-09T07:36:14.347Z,12.70
2019-05-09T07:38:43.807Z,12.70
2019-05-09T07:41:13.272Z,12.80
2019-05-09T07:43:42.785Z,12.70
2019-05-09T07:46:19.724Z,12.80
2019-05-09T07:48:50.811Z,12.80
2019-05-09T07:51:20.276Z,12.90
2019-05-09T07:53:49.809Z,13.00
2019-05-09T07:56:19.351Z,13.00
2019-05-09T07:58:48.897Z,12.90
2019-05-09T08:01:19.204Z,13.00
2019-05-09T08:03:49.128Z,13.00
2019-05-09T08:06:18.688Z,12.90
2019-05-09T08:08:48.144Z,12.90
2019-05-09T08:11:18.571Z,13.00
2019-05-09T08:13:48.716Z,13.00
2019-05-09T08:16:18.690Z,13.00
2019-05-09T08:18:48.505Z,13.10
2019-05-09T08:21:18.247Z,13.10
2019-05-09T08:23:48.521Z,13.20
2019-05-09T08:26:18.838Z,13.20
2019-05-09T08:28:49.703Z,13.30
2019-05-09T08:31:19.168Z,13.30
2019-05-09T08:33:48.718Z,13.30
2019-05-09T08:36:20.247Z,13.30
2019-05-09T08:38:49.272Z,13.20
2019-05-09T08:41:18.884Z,13.30
2019-05-09T08:43:48.503Z,13.40
2019-05-09T08:46:18.338Z,13.40
2019-05-09T08:48:48.464Z,13.40
2019-05-09T08:51:19.817Z,13.40
2019-05-09T08:53:50.895Z,13.50
2019-05-09T08:56:20.347Z,13.50
2019-05-09T08:58:49.807Z,13.60
2019-05-09T09:01:31.216Z,13.60
2019-05-09T09:03:50.623Z,13.60
2019-05-09T09:06:20.083Z,13.60
2019-05-09T09:08:49.542Z,13.70
2019-05-09T09:11:19.028Z,13.80
2019-05-09T09:13:48.538Z,13.80
2019-05-09T09:16:21.590Z,13.70
2019-05-09T09:18:49.258Z,13.80
2019-05-09T09:21:18.783Z,13.80
2019-05-09T09:23:50.827Z,13.80
2019-05-09T09:26:19.348Z,13.90
2019-05-09T09:28:49.888Z,13.90
2019-05-09T09:31:19.412Z,14.00
2019-05-09T09:33:48.868Z,14.00
2019-05-09T09:36:18.327Z,14.10
2019-05-09T09:38:48.232Z,14.20
2019-05-09T09:41:18.361Z,14.30
2019-05-09T09:43:49.532Z,14.30
2019-05-09T09:46:18.996Z,14.30
2019-05-09T09:48:48.464Z,14.30
2019-05-09T09:51:18.807Z,14.40
2019-05-09T09:53:49.332Z,14.60
2019-05-09T09:56:22.439Z,14.70
2019-05-09T09:58:51.597Z,14.70
2019-05-09T10:01:22.687Z,14.70
2019-05-09T10:03:53.813Z,14.70
2019-05-09T10:06:23.269Z,14.90
2019-05-09T10:08:52.743Z,15.00
2019-05-09T10:11:22.212Z,15.00
2019-05-09T10:13:52.108Z,14.90
2019-05-09T10:16:39.952Z,15.10
2019-05-09T10:19:11.080Z,15.10
2019-05-09T10:21:42.178Z,15.00
2019-05-09T10:24:11.666Z,15.00
2019-05-09T10:26:42.767Z,15.20
2019-05-09T10:29:12.250Z,15.20
2019-05-09T10:31:41.712Z,15.30
2019-05-09T10:34:11.321Z,15.40
2019-05-09T10:36:41.351Z,15.50
2019-05-09T10:39:10.840Z,15.50
2019-05-09T10:41:40.299Z,15.80
2019-05-09T10:44:23.247Z,15.80
2019-05-09T10:46:58.854Z,16.00
2019-05-09T10:49:25.464Z,15.80
2019-05-09T10:51:54.915Z,15.90
2019-05-09T10:54:24.392Z,15.90
2019-05-09T10:56:53.855Z,15.90
2019-05-09T10:59:23.370Z,16.00
2019-05-09T11:01:52.829Z,16.00
2019-05-09T11:04:22.307Z,16.00
2019-05-09T11:06:51.766Z,16.00
2019-05-09T11:09:21.269Z,16.00
2019-05-09T11:11:50.732Z,16.10
2019-05-09T11:14:32.796Z,16.10
2019-05-09T11:17:06.745Z,15.80
2019-05-09T11:19:22.402Z,16.20
2019-05-09T11:21:51.957Z,16.20
2019-05-09T11:24:36.762Z,16.30
2019-05-09T11:26:52.525Z,16.70
2019-05-09T11:29:22.008Z,17.50
2019-05-09T11:31:51.473Z,17.40
2019-05-09T11:34:22.029Z,17.60
2019-05-09T11:36:51.504Z,18.30
2019-05-09T11:39:35.617Z,17.90
2019-05-09T11:41:52.076Z,17.70
2019-05-09T11:44:21.530Z,17.40
2019-05-09T11:46:51.002Z,17.20
2019-05-09T11:49:20.476Z,16.80
2019-05-09T11:51:50.008Z,16.80
2019-05-09T11:54:19.660Z,16.90
2019-05-09T11:56:49.642Z,17.00
2019-05-09T11:59:19.161Z,16.90
2019-05-09T12:01:48.582Z,16.90
2019-05-09T12:04:18.676Z,16.80
2019-05-09T12:06:49.395Z,16.40
2019-05-09T12:09:19.101Z,16.30
2019-05-09T12:11:48.631Z,16.50
2019-05-09T12:14:18.146Z,16.50
2019-05-09T12:16:48.204Z,16.50
2019-05-09T12:19:18.131Z,16.50
2019-05-09T12:21:48.473Z,16.60
2019-05-09T12:24:18.685Z,16.90
2019-05-09T12:26:49.205Z,17.50
2019-05-09T12:29:19.562Z,17.90
2019-05-09T12:31:49.403Z,18.30
2019-05-09T12:34:19.546Z,18.70
2019-05-09T12:36:49.640Z,19.30
2019-05-09T12:39:19.388Z,18.90
2019-05-09T12:41:48.932Z,18.60
2019-05-09T12:44:18.647Z,18.20
2019-05-09T12:46:49.077Z,18.00
2019-05-09T12:49:19.841Z,18.10
2019-05-09T12:51:49.315Z,19.50
2019-05-09T12:54:19.175Z,19.80
2019-05-09T12:56:48.852Z,20.50
2019-05-09T12:59:19.441Z,19.70
2019-05-09T13:01:49.387Z,19.70
2019-05-09T13:04:19.141Z,19.20
2019-05-09T13:06:49.085Z,18.40
2019-05-09T13:09:19.281Z,18.70
2019-05-09T13:11:48.735Z,18.80
2019-05-09T13:14:19.429Z,19.10
2019-05-09T13:16:59.904Z,19.10
2019-05-09T13:19:30.991Z,19.90
2019-05-09T13:22:00.482Z,19.40
2019-05-09T13:24:29.939Z,18.80
2019-05-09T13:26:59.399Z,18.80
2019-05-09T13:29:29.634Z,18.80
2019-05-09T13:31:59.145Z,18.40
2019-05-09T13:34:28.609Z,18.30
2019-05-09T13:36:59.076Z,18.30
2019-05-09T13:39:28.703Z,18.10
2019-05-09T13:41:58.483Z,18.20
2019-05-09T13:44:28.670Z,18.20
2019-05-09T13:46:58.723Z,18.20
2019-05-09T13:49:28.678Z,17.80
2019-05-09T13:52:03.532Z,17.70
2019-05-09T13:54:29.277Z,17.60
2019-05-09T13:57:01.286Z,17.30
2019-05-09T13:59:30.367Z,17.40
2019-05-09T14:02:00.096Z,17.20
2019-05-09T14:04:30.020Z,18.20
2019-05-09T14:06:59.604Z,18.60
2019-05-09T14:09:29.544Z,18.30
2019-05-09T14:11:59.174Z,18.30
2019-05-09T14:14:28.674Z,18.60
2019-05-09T14:16:59.303Z,18.60
2019-05-09T14:19:39.583Z,18.50
2019-05-09T14:22:00.337Z,18.20
2019-05-09T14:24:29.788Z,18.00
2019-05-09T14:26:59.268Z,18.10
2019-05-09T14:29:31.524Z,18.20
2019-05-09T14:32:04.344Z,19.20
2019-05-09T14:34:32.069Z,19.20
2019-05-09T14:37:02.642Z,19.40
2019-05-09T14:39:32.094Z,19.70
2019-05-09T14:42:01.580Z,19.50
2019-05-09T14:44:31.045Z,19.00
2019-05-09T14:47:00.515Z,18.40
2019-05-09T14:49:40.393Z,18.40
2019-05-09T14:52:02.059Z,18.30
2019-05-09T14:54:31.629Z,18.30
2019-05-09T14:57:01.134Z,18.40
2019-05-09T14:59:30.576Z,17.80
2019-05-09T15:02:00.066Z,17.80
2019-05-09T15:04:29.614Z,17.60
2019-05-09T15:06:59.060Z,17.70
2019-05-09T15:09:28.632Z,18.00
2019-05-09T15:11:58.605Z,18.60
2019-05-09T15:14:28.934Z,19.20
2019-05-09T15:16:58.550Z,20.10
2019-05-09T15:19:28.752Z,20.40
2019-05-09T15:22:00.849Z,19.60
2019-05-09T15:24:29.376Z,19.20
2019-05-09T15:26:58.860Z,19.10
2019-05-09T15:29:29.034Z,18.80
2019-05-09T15:32:04.700Z,18.40
2019-05-09T15:34:29.867Z,18.80
2019-05-09T15:36:59.343Z,19.10
2019-05-09T15:39:28.809Z,18.80
2019-05-09T15:41:58.316Z,18.80
2019-05-09T15:44:27.779Z,18.30
2019-05-09T15:46:58.904Z,17.90
2019-05-09T15:49:28.648Z,17.80
2019-05-09T15:51:59.150Z,17.80
2019-05-09T15:54:29.385Z,17.60
2019-05-09T15:56:59.669Z,17.80
2019-05-09T15:59:29.129Z,17.80
2019-05-09T16:01:58.636Z,18.80
2019-05-09T16:04:29.260Z,19.50
2019-05-09T16:06:58.953Z,20.10
2019-05-09T16:09:28.708Z,20.20
2019-05-09T16:11:59.507Z,20.20
2019-05-09T16:14:29.023Z,20.20
2019-05-09T16:16:58.475Z,20.30
2019-05-09T16:19:28.179Z,20.30
2019-05-09T16:21:57.630Z,20.40
2019-05-09T16:24:28.057Z,20.90
2019-05-09T16:26:57.900Z,20.50
2019-05-09T16:29:28.524Z,20.80
2019-05-09T16:31:58.842Z,20.80
2019-05-09T16:34:28.463Z,20.60
2019-05-09T16:36:58.439Z,20.00
2019-05-09T16:39:28.044Z,19.90
2019-05-09T16:41:59.260Z,19.90
2019-05-09T16:44:28.916Z,20.00
2019-05-09T16:46:58.371Z,20.00
2019-05-09T16:49:29.243Z,19.90
2019-05-09T16:51:58.996Z,20.00
2019-05-09T16:54:31.243Z,20.40
2019-05-09T16:57:00.647Z,20.30
2019-05-09T16:59:30.209Z,19.80
2019-05-09T17:01:59.659Z,19.70
2019-05-09T17:04:29.119Z,19.60
2019-05-09T17:06:58.685Z,19.10
2019-05-09T17:09:28.634Z,19.10
2019-05-09T17:11:58.148Z,19.00
2019-05-09T17:14:28.306Z,18.90
2019-05-09T17:17:00.082Z,18.90
2019-05-09T17:19:29.700Z,18.80
2019-05-09T17:22:03.808Z,18.50
2019-05-09T17:24:33.263Z,18.50
2019-05-09T17:27:02.725Z,18.40
2019-05-09T17:29:32.277Z,18.20
2019-05-09T17:32:01.738Z,18.30
2019-05-09T17:34:31.200Z,18.30
2019-05-09T17:37:00.655Z,18.20
2019-05-09T17:39:30.216Z,17.80
2019-05-09T17:41:59.675Z,17.80
2019-05-09T17:44:29.151Z,17.50
2019-05-09T17:46:58.643Z,17.30
2019-05-09T17:49:28.235Z,17.20
2019-05-09T17:51:58.596Z,17.20
2019-05-09T17:54:28.699Z,17.10
2019-05-09T17:56:58.503Z,16.80
2019-05-09T17:59:29.277Z,16.60
2019-05-09T18:01:58.989Z,16.50
2019-05-09T18:04:29.048Z,16.40
2019-05-09T18:06:58.728Z,16.40
2019-05-09T18:09:29.843Z,16.40
2019-05-09T18:12:00.037Z,16.10
2019-05-09T18:14:29.529Z,16.10
2019-05-09T18:16:58.999Z,15.90
2019-05-09T18:19:29.359Z,15.70
2019-05-09T18:21:59.019Z,15.50
2019-05-09T18:24:28.886Z,15.20
2019-05-09T18:26:58.483Z,15.30
2019-05-09T18:29:29.194Z,15.40
2019-05-09T18:32:12.289Z,15.50
2019-05-09T18:34:41.778Z,15.50
2019-05-09T18:37:11.431Z,15.50
2019-05-09T18:39:40.916Z,15.50
2019-05-09T18:42:10.372Z,15.60
2019-05-09T18:44:39.969Z,15.40
2019-05-09T18:47:09.419Z,15.40
2019-05-09T18:49:38.904Z,15.30
2019-05-09T18:52:08.354Z,15.10
2019-05-09T18:54:37.841Z,14.90
2019-05-09T18:57:07.292Z,14.80
2019-05-09T18:59:36.781Z,15.00
2019-05-09T19:02:06.313Z,15.10
2019-05-09T19:04:35.778Z,15.10
2019-05-09T19:07:20.828Z,15.10
2019-05-09T19:09:36.347Z,15.10
2019-05-09T19:12:06.027Z,15.00
2019-05-09T19:14:36.843Z,14.80
2019-05-09T19:17:24.356Z,14.80
2019-05-09T19:19:59.243Z,14.80
2019-05-09T19:22:28.712Z,14.80
2019-05-09T19:24:58.196Z,14.80
2019-05-09T19:27:27.647Z,14.80
2019-05-09T19:29:57.115Z,14.70
2019-05-09T19:32:26.576Z,14.70
2019-05-09T19:34:56.050Z,14.70
2019-05-09T19:37:26.493Z,14.70
2019-05-09T19:39:55.975Z,14.60
2019-05-09T19:42:25.431Z,14.60
2019-05-09T19:44:55.034Z,14.60
2019-05-09T19:47:24.576Z,14.60
2019-05-09T19:49:54.147Z,14.50
2019-05-09T19:52:37.370Z,14.40
2019-05-09T19:54:54.712Z,14.40
2019-05-09T19:57:24.237Z,14.40
2019-05-09T19:59:53.652Z,14.40
2019-05-09T20:02:23.114Z,14.40
2019-05-09T20:04:54.296Z,14.50
2019-05-09T20:07:23.901Z,14.50
2019-05-09T20:09:55.206Z,14.40
2019-05-09T20:12:28.979Z,14.40
2019-05-09T20:14:58.468Z,14.40
2019-05-09T20:17:27.936Z,14.20
2019-05-09T20:19:57.456Z,14.20
2019-05-09T20:22:26.866Z,14.20
2019-05-09T20:24:56.396Z,14.10
2019-05-09T20:27:26.912Z,14.10
2019-05-09T20:29:57.096Z,14.10
2019-05-09T20:32:27.746Z,14.10
2019-05-09T20:34:57.300Z,14.10
2019-05-09T20:37:26.939Z,14.20
2019-05-09T20:39:56.592Z,14.20
2019-05-09T20:42:26.246Z,14.20
2019-05-09T20:44:56.048Z,14.30
2019-05-09T20:47:25.789Z,14.30
2019-05-09T20:49:55.436Z,14.10
2019-05-09T20:52:25.103Z,14.20
2019-05-09T20:54:54.761Z,14.20
2019-05-09T20:57:24.551Z,14.10
2019-05-09T20:59:54.192Z,14.20
2019-05-09T21:02:23.916Z,14.10
2019-05-09T21:04:53.556Z,14.10
2019-05-09T21:07:23.271Z,14.00
2019-05-09T21:09:52.956Z,14.00
2019-05-09T21:12:23.683Z,13.90
2019-05-09T21:14:53.397Z,13.80
2019-05-09T21:17:23.063Z,13.80
2019-05-09T21:19:52.703Z,13.70
2019-05-09T21:22:22.460Z,13.70
2019-05-09T21:24:52.176Z,13.60
2019-05-09T21:27:21.816Z,13.60
2019-05-09T21:29:51.464Z,13.50
2019-05-09T21:32:21.102Z,13.30
2019-05-09T21:34:50.576Z,13.30
2019-05-09T21:37:20.028Z,13.30
2019-05-09T21:39:49.498Z,13.30
2019-05-09T21:42:18.950Z,13.20
2019-05-09T21:44:48.484Z,13.10
2019-05-09T21:47:17.980Z,13.10
2019-05-09T21:49:47.419Z,13.00
2019-05-09T21:52:17.847Z,13.00
2019-05-09T21:54:47.309Z,13.10
2019-05-09T21:57:16.858Z,13.10
2019-05-09T21:59:46.338Z,13.20
2019-05-09T22:02:16.050Z,13.20
2019-05-09T22:04:45.575Z,13.20
2019-05-09T22:07:15.069Z,13.10
2019-05-09T22:09:44.510Z,13.10
2019-05-09T22:12:13.997Z,13.00
2019-05-09T22:14:43.446Z,13.10
2019-05-09T22:17:14.640Z,13.10
2019-05-09T22:19:44.111Z,13.10
2019-05-09T22:22:13.588Z,13.10
2019-05-09T22:24:43.047Z,13.00
2019-05-09T22:27:12.532Z,13.00
2019-05-09T22:29:41.987Z,12.90
2019-05-09T22:32:11.469Z,12.90
2019-05-09T22:34:40.915Z,12.90
2019-05-09T22:37:10.407Z,12.90
2019-05-09T22:39:39.868Z,12.80
2019-05-09T22:42:09.343Z,12.70
2019-05-09T22:44:38.807Z,12.60
2019-05-09T22:47:08.320Z,12.40
2019-05-09T22:49:37.784Z,12.50
2019-05-09T22:52:07.431Z,12.30
2019-05-09T22:54:37.959Z,12.30
2019-05-09T22:57:07.444Z,12.20
2019-05-09T22:59:36.937Z,12.20
2019-05-09T23:02:07.233Z,12.10
2019-05-09T23:04:36.847Z,12.10
2019-05-09T23:07:06.336Z,12.30
2019-05-09T23:09:35.802Z,12.30
2019-05-09T23:12:05.270Z,12.30
2019-05-09T23:14:34.730Z,12.30
2019-05-09T23:17:04.285Z,12.30
2019-05-09T23:19:33.807Z,12.30
2019-05-09T23:22:03.591Z,12.30
2019-05-09T23:24:34.680Z,12.20
2019-05-09T23:27:04.295Z,12.20
2019-05-09T23:29:33.760Z,12.20
2019-05-09T23:32:17.186Z,12.10
2019-05-09T23:34:46.642Z,12.10
2019-05-09T23:37:16.127Z,12.00
2019-05-09T23:39:48.287Z,12.00
2019-05-09T23:42:17.762Z,12.00
2019-05-09T23:44:47.325Z,11.90
2019-05-09T23:47:16.774Z,12.00
2019-05-09T23:49:46.245Z,11.90
2019-05-09T23:52:15.736Z,11.90
2019-05-09T23:55:03.331Z,12.00
2019-05-09T23:57:50.619Z,12.00
